Terminal Aerodrome Forecast
Issued by NWS

Home | Current Version | Previous Version | Text Only | Print | Product List | Glossary Off
Versions: 1 2 3 4 5 6 7 8 9 10 11 12 13 14 15 16 17 18 19 20

000
FTUS43 KABR 281700
TAFMBG
TAF
KMBG 281728Z 2818/2918 32020G27KT P6SM OVC029
     FM282100 32019G26KT P6SM BKN040
     FM290200 34008KT P6SM SCT040
     FM291100 15005KT P6SM SCT250=

USA.gov is the U.S. government's official web portal to all federal, state and local government web resources and services.